DLH023 ESGG-EDDF
Flight info
| Callsign | DLH023 |
|---|---|
| Flight time | N/A |
| Altitude | 39000 |
| Route | TOPLA L996 ERNOV DCT NIKDA/N0464F400 DCT NOBRI DCT BUMIL DCT HLZ DCT RIMET/N0443F310 T157 KOKEB/N0391F230 T157 KERAX KERAX5A |
| Aircraft | A339/H-SADE1E2E3GHIJ3J5M1P2RWXY/LB2D1 |
Departure
| Time | 2026-05-05 17:04 |
|---|---|
| Airport | Göteborg Landvetter Airport (ESGG) |
Arrival
| Time | N/A |
|---|---|
| Airport | Frankfurt Main Airport (EDDF) |
| Time | Latitude | Longitude | Altitude | Speed | Heading |
|---|---|---|---|---|---|
| 2026-05-05 16:39 | 57.66944 | 12.29223 | 524 ft | 0 kts | 251° |
| 2026-05-05 16:49 | 57.66946 | 12.29235 | 526 ft | 2 kts | 249° |
| 2026-05-05 16:49 | 57.66955 | 12.29264 | 526 ft | 2 kts | 292° |
| 2026-05-05 16:49 | 57.66952 | 12.29289 | 528 ft | 0 kts | 157° |
| 2026-05-05 16:50 | 57.66951 | 12.29290 | 528 ft | 1 kts | 158° |
| 2026-05-05 16:50 | 57.66941 | 12.29293 | 529 ft | 3 kts | 168° |
| 2026-05-05 16:50 | 57.66923 | 12.29282 | 530 ft | 3 kts | 200° |
| 2026-05-05 16:51 | 57.66921 | 12.29280 | 530 ft | 0 kts | 202° |
| 2026-05-05 16:55 | 57.66920 | 12.29278 | 530 ft | 1 kts | 202° |
| 2026-05-05 16:55 | 57.66909 | 12.29272 | 530 ft | 2 kts | 197° |
| 2026-05-05 16:55 | 57.66895 | 12.29268 | 531 ft | 2 kts | 192° |
| 2026-05-05 16:55 | 57.66870 | 12.29255 | 532 ft | 6 kts | 197° |
| 2026-05-05 16:56 | 57.66819 | 12.29215 | 532 ft | 10 kts | 204° |
| 2026-05-05 16:56 | 57.66779 | 12.29075 | 525 ft | 18 kts | 279° |
| 2026-05-05 16:56 | 57.66848 | 12.28872 | 526 ft | 16 kts | 335° |
| 2026-05-05 16:56 | 57.66929 | 12.28906 | 530 ft | 12 kts | 21° |
| 2026-05-05 16:57 | 57.67036 | 12.29001 | 530 ft | 21 kts | 26° |
| 2026-05-05 16:57 | 57.67171 | 12.29126 | 529 ft | 23 kts | 26° |
| 2026-05-05 16:57 | 57.67318 | 12.29261 | 529 ft | 24 kts | 26° |
| 2026-05-05 16:57 | 57.67414 | 12.29333 | 529 ft | 0 kts | 19° |
| 2026-05-05 16:58 | 57.67416 | 12.29333 | 529 ft | 0 kts | 14° |
| 2026-05-05 16:58 | 57.67421 | 12.29331 | 529 ft | 1 kts | 2° |
| 2026-05-05 16:58 | 57.67429 | 12.29326 | 529 ft | 2 kts | 348° |
| 2026-05-05 16:58 | 57.67444 | 12.29301 | 528 ft | 4 kts | 318° |
| 2026-05-05 16:59 | 57.67447 | 12.29266 | 527 ft | 0 kts | 278° |
| 2026-05-05 17:02 | 57.67449 | 12.29250 | 527 ft | 6 kts | 278° |
| 2026-05-05 17:02 | 57.67449 | 12.29127 | 525 ft | 12 kts | 260° |
| 2026-05-05 17:02 | 57.67407 | 12.29011 | 527 ft | 10 kts | 218° |
| 2026-05-05 17:03 | 57.67381 | 12.28984 | 527 ft | 0 kts | 208° |
| 2026-05-05 17:03 | 57.67371 | 12.28975 | 528 ft | 11 kts | 208° |
| 2026-05-05 17:03 | 57.67181 | 12.28793 | 533 ft | 50 kts | 206° |
| 2026-05-05 17:03 | 57.66587 | 12.28248 | 531 ft | 136 kts | 206° |
| 2026-05-05 17:04 | 57.65619 | 12.27320 | 1043 ft | 154 kts | 210° |
| 2026-05-05 17:04 | 57.64627 | 12.26441 | 2023 ft | 165 kts | 209° |
| 2026-05-05 17:04 | 57.63488 | 12.25398 | 2724 ft | 189 kts | 209° |
| 2026-05-05 17:04 | 57.62214 | 12.24256 | 3198 ft | 214 kts | 209° |
| 2026-05-05 17:05 | 57.60899 | 12.23044 | 4192 ft | 211 kts | 210° |
| 2026-05-05 17:05 | 57.59559 | 12.21782 | 4780 ft | 225 kts | 210° |
| 2026-05-05 17:05 | 57.58030 | 12.21029 | 5527 ft | 229 kts | 182° |
| 2026-05-05 17:05 | 57.56539 | 12.21784 | 6662 ft | 217 kts | 159° |
| 2026-05-05 17:06 | 57.55120 | 12.22813 | 7282 ft | 222 kts | 171° |
| 2026-05-05 17:06 | 57.53591 | 12.23271 | 7919 ft | 223 kts | 178° |
| 2026-05-05 17:06 | 57.52038 | 12.23637 | 8695 ft | 226 kts | 178° |
| 2026-05-05 17:06 | 57.50466 | 12.24030 | 9522 ft | 229 kts | 178° |
| 2026-05-05 17:07 | 57.48871 | 12.24448 | 10277 ft | 233 kts | 179° |
| 2026-05-05 17:07 | 57.47269 | 12.24886 | 11062 ft | 232 kts | 179° |
| 2026-05-05 17:07 | 57.45663 | 12.25329 | 11826 ft | 234 kts | 180° |
| 2026-05-05 17:07 | 57.44041 | 12.25773 | 12595 ft | 236 kts | 181° |
| 2026-05-05 17:08 | 57.42414 | 12.26217 | 13356 ft | 237 kts | 182° |
| 2026-05-05 17:08 | 57.40773 | 12.26662 | 14017 ft | 239 kts | 183° |
| 2026-05-05 17:08 | 57.40255 | 12.26801 | 14224 ft | 239 kts | 183° |